Time;durP1;ratioP1;P1;durP2;ratioP2;P2;SDS_P1;SDS_P2;PMS_P1;PMS_P2;Temp;Humidity;BMP_temperature;BMP_pressure;BME280_temperature;BME280_humidity;BME280_pressure;Samples;Min_cycle;Max_cycle;Signal;HPM_P1;HPM_P2
2023/08/14 00:02:22;;;;;;;8.07;4.20;;;22.30;99.90;;;;;;4960337;28;20417;-77
2023/08/14 00:04:50;;;;;;;9.68;4.40;;;22.30;99.90;;;;;;4960893;28;20392;-77
2023/08/14 00:07:16;;;;;;;8.60;3.78;;;22.20;99.90;;;;;;4960208;28;20766;-78
2023/08/14 00:09:41;;;;;;;9.45;4.03;;;22.10;99.90;;;;;;4960127;28;20404;-78
2023/08/14 00:12:07;;;;;;;8.97;4.10;;;22.10;99.90;;;;;;4962251;28;20417;-78
2023/08/14 00:14:33;;;;;;;7.00;3.20;;;22.20;99.90;;;;;;4959893;28;20400;-78
2023/08/14 00:16:58;;;;;;;8.23;4.13;;;22.10;99.90;;;;;;4960203;28;20389;-78
2023/08/14 00:19:24;;;;;;;9.75;4.10;;;22.10;99.90;;;;;;4962052;28;20408;-78
2023/08/14 00:21:50;;;;;;;9.60;4.20;;;22.20;99.90;;;;;;4958779;28;20429;-78
2023/08/14 00:24:19;;;;;;;10.25;4.30;;;22.20;99.90;;;;;;4960295;28;21298;-78
2023/08/14 00:26:44;;;;;;;8.18;4.00;;;22.20;99.90;;;;;;4959953;28;20903;-78
2023/08/14 00:29:10;;;;;;;9.10;4.60;;;22.20;99.90;;;;;;4958807;28;20422;-78
2023/08/14 00:31:35;;;;;;;10.03;4.03;;;22.20;99.90;;;;;;4962235;28;20976;-78
2023/08/14 00:34:01;;;;;;;11.13;4.20;;;22.20;99.90;;;;;;4958620;28;20424;-78
2023/08/14 00:36:26;;;;;;;9.53;4.00;;;22.30;99.90;;;;;;4962035;28;20394;-78
2023/08/14 00:38:52;;;;;;;9.23;4.53;;;22.20;99.90;;;;;;4964910;28;20429;-78
2023/08/14 00:41:17;;;;;;;10.10;4.50;;;22.20;99.90;;;;;;4963190;28;20895;-78
2023/08/14 00:43:43;;;;;;;9.70;4.20;;;22.20;99.90;;;;;;4961978;28;20804;-78
2023/08/14 00:46:08;;;;;;;13.40;4.30;;;22.10;99.90;;;;;;4958834;28;20959;-77
2023/08/14 00:48:35;;;;;;;10.07;4.43;;;22.10;99.90;;;;;;4961093;28;20945;-77
2023/08/14 00:51:01;;;;;;;8.82;4.40;;;22.20;99.90;;;;;;4961182;28;20397;-77
2023/08/14 00:53:29;;;;;;;10.05;4.65;;;22.10;99.90;;;;;;4960085;28;20409;-77
2023/08/14 00:55:55;;;;;;;8.32;3.75;;;22.10;99.90;;;;;;4963496;28;20531;-77
2023/08/14 00:58:22;;;;;;;10.93;4.25;;;22.10;99.90;;;;;;4958441;28;20409;-78
2023/08/14 01:00:48;;;;;;;9.20;4.55;;;22.20;99.90;;;;;;4962441;28;20932;-78
2023/08/14 01:03:13;;;;;;;8.40;3.90;;;22.30;99.90;;;;;;4961026;28;20489;-78
2023/08/14 01:08:34;;;;;;;8.77;3.85;;;22.30;99.90;;;;;;5528424;23;20474;-75
2023/08/14 01:14:12;;;;;;;9.77;4.82;;;22.50;99.90;;;;;;5627693;23;20484;-77
2023/08/14 01:16:46;;;;;;;10.27;4.50;;;22.60;99.90;;;;;;4941387;29;20483;-78
2023/08/14 01:19:26;;;;;;;7.72;3.63;;;22.70;99.90;;;;;;4937121;29;20411;-78
2023/08/14 01:22:06;;;;;;;8.30;3.45;;;22.90;99.90;;;;;;4948830;29;20427;-78
2023/08/14 01:24:53;;;;;;;9.75;4.10;;;22.90;99.90;;;;;;4945862;29;21008;-79
2023/08/14 01:27:39;;;;;;;9.50;4.43;;;22.90;94.30;;;;;;4947481;29;20922;-77
2023/08/14 01:30:08;;;;;;;9.15;4.40;;;22.80;99.90;;;;;;4935462;29;20404;-77
2023/08/14 01:32:34;;;;;;;10.18;4.20;;;22.70;99.90;;;;;;4940885;29;20403;-78
2023/08/14 01:35:02;;;;;;;10.10;4.50;;;22.70;99.90;;;;;;4938494;29;20415;-78
2023/08/14 01:37:58;;;;;;;10.70;4.70;;;22.60;99.90;;;;;;4942482;29;20416;-78
2023/08/14 01:40:45;;;;;;;8.73;4.20;;;22.60;99.90;;;;;;4940723;29;20412;-78
2023/08/14 01:43:18;;;;;;;8.80;4.60;;;22.50;99.90;;;;;;4948036;29;20423;-78
2023/08/14 01:45:43;;;;;;;8.32;3.75;;;22.40;99.90;;;;;;4935900;29;20759;-77
2023/08/14 01:48:11;;;;;;;9.98;4.57;;;22.20;99.90;;;;;;4935817;29;20807;-77
2023/08/14 01:50:38;;;;;;;9.63;4.50;;;22.30;99.90;;;;;;4934925;29;20438;-77
2023/08/14 01:53:03;;;;;;;11.23;3.92;;;22.20;99.90;;;;;;4935751;29;20410;-77
2023/08/14 01:55:29;;;;;;;8.23;4.10;;;22.20;99.90;;;;;;4935513;29;20399;-77
2023/08/14 01:57:55;;;;;;;9.75;4.40;;;22.30;99.90;;;;;;4934056;29;20406;-77
2023/08/14 02:00:21;;;;;;;11.45;3.97;;;22.30;99.90;;;;;;4935896;29;20505;-77
2023/08/14 02:02:49;;;;;;;9.18;4.45;;;22.40;99.90;;;;;;4935853;29;20924;-77
2023/08/14 02:05:15;;;;;;;9.32;4.10;;;22.40;99.90;;;;;;4936089;29;20526;-77
2023/08/14 02:07:42;;;;;;;10.80;4.60;;;22.50;99.90;;;;;;4935871;29;20569;-77
2023/08/14 02:10:08;;;;;;;9.48;4.78;;;22.50;99.90;;;;;;4936760;29;20411;-76
2023/08/14 02:12:33;;;;;;;10.57;3.60;;;22.60;99.90;;;;;;4957378;29;20423;-78
2023/08/14 02:14:59;;;;;;;10.67;4.40;;;22.60;99.90;;;;;;4961275;28;20416;-79
2023/08/14 02:17:27;;;;;;;10.87;4.43;;;22.50;99.90;;;;;;4979675;28;20783;-77
2023/08/14 02:19:53;;;;;;;9.70;4.60;;;22.50;99.90;;;;;;4973757;28;20415;-77
2023/08/14 02:22:18;;;;;;;8.85;4.28;;;22.50;99.90;;;;;;4975623;28;20396;-77
2023/08/14 02:24:44;;;;;;;10.97;4.30;;;22.50;99.90;;;;;;4980873;28;20419;-76
2023/08/14 02:27:09;;;;;;;9.00;3.80;;;22.40;99.90;;;;;;4983566;28;20403;-76
2023/08/14 02:29:34;;;;;;;8.20;4.00;;;22.50;99.90;;;;;;4986598;28;20385;-75
2023/08/14 02:32:00;;;;;;;8.63;4.07;;;22.40;99.90;;;;;;4986900;28;20435;-76
2023/08/14 02:34:32;;;;;;;10.70;4.20;;;22.30;99.90;;;;;;4983379;28;20392;-76
2023/08/14 02:36:57;;;;;;;12.05;4.25;;;22.20;99.90;;;;;;4979859;28;20516;-76
2023/08/14 02:39:23;;;;;;;9.63;4.43;;;22.10;99.90;;;;;;4978031;28;20400;-76
2023/08/14 02:41:48;;;;;;;12.10;3.60;;;22.00;99.90;;;;;;4976654;28;20419;-76
2023/08/14 02:44:14;;;;;;;9.60;4.53;;;21.90;99.90;;;;;;4976801;28;20498;-76
2023/08/14 02:46:39;;;;;;;8.37;4.60;;;21.80;99.90;;;;;;4975783;28;20911;-76
2023/08/14 02:49:05;;;;;;;9.77;3.43;;;21.70;99.90;;;;;;4977256;28;20404;-77
2023/08/14 02:51:31;;;;;;;10.15;4.13;;;21.60;99.90;;;;;;4986270;28;20396;-79
2023/08/14 02:53:57;;;;;;;9.50;3.85;;;21.60;99.90;;;;;;4986695;28;20412;-76
2023/08/14 02:56:23;;;;;;;11.38;4.38;;;21.70;99.90;;;;;;4979070;28;20407;-77
2023/08/14 02:58:48;;;;;;;8.83;3.50;;;21.80;99.90;;;;;;4985205;28;20404;-77
2023/08/14 03:01:17;;;;;;;7.80;3.90;;;21.90;99.90;;;;;;4984884;28;20440;-76
2023/08/14 03:03:43;;;;;;;10.15;4.50;;;22.00;99.90;;;;;;4982542;28;20463;-78
2023/08/14 03:06:08;;;;;;;9.17;4.10;;;22.10;99.90;;;;;;4967365;28;20448;-77
2023/08/14 03:08:34;;;;;;;10.80;5.17;;;22.10;99.90;;;;;;4999116;28;20460;-78
2023/08/14 03:10:59;;;;;;;11.82;4.47;;;22.00;99.90;;;;;;4982977;28;20474;-78
2023/08/14 03:13:25;;;;;;;14.00;4.50;;;21.80;99.90;;;;;;4981219;28;20512;-77
2023/08/14 03:15:50;;;;;;;8.05;4.20;;;21.60;99.90;;;;;;4980635;28;20451;-75
2023/08/14 03:18:16;;;;;;;9.90;3.70;;;21.40;99.90;;;;;;4981887;28;20407;-77
2023/08/14 03:20:42;;;;;;;7.50;3.20;;;21.30;99.90;;;;;;4982694;28;20527;-76
2023/08/14 03:23:07;;;;;;;8.65;3.60;;;21.30;99.90;;;;;;4981060;28;20483;-76
2023/08/14 03:25:33;;;;;;;9.30;4.10;;;21.20;99.90;;;;;;4981742;28;20400;-77
2023/08/14 03:28:01;;;;;;;8.15;3.17;;;21.20;99.90;;;;;;4981144;28;20405;-78
2023/08/14 03:30:27;;;;;;;7.90;3.17;;;21.10;99.90;;;;;;4984949;28;20559;-78
2023/08/14 03:32:52;;;;;;;6.53;3.20;;;21.10;99.90;;;;;;4985098;28;20427;-78
2023/08/14 03:35:19;;;;;;;7.80;3.10;;;21.10;99.90;;;;;;4985184;28;20412;-80
2023/08/14 03:37:44;;;;;;;7.03;2.90;;;21.10;99.90;;;;;;4986927;28;20406;-77
2023/08/14 03:40:11;;;;;;;7.27;3.30;;;21.10;99.90;;;;;;4969819;28;20507;-77
2023/08/14 03:42:37;;;;;;;7.50;2.70;;;21.20;99.90;;;;;;4986543;28;20408;-77
2023/08/14 03:45:06;;;;;;;6.75;2.60;;;21.30;99.90;;;;;;4984395;28;20412;-76
2023/08/14 03:47:32;;;;;;;6.75;2.70;;;21.30;99.90;;;;;;4983527;28;20408;-78
2023/08/14 03:49:57;;;;;;;7.03;2.47;;;21.30;99.90;;;;;;4980051;28;20420;-80
2023/08/14 03:52:23;;;;;;;8.07;3.10;;;21.20;99.90;;;;;;4982551;28;20400;-78
2023/08/14 03:54:50;;;;;;;8.80;3.20;;;21.20;99.90;;;;;;4983478;28;20428;-78
2023/08/14 03:57:17;;;;;;;7.20;2.50;;;21.20;99.90;;;;;;4984314;28;20408;-77
2023/08/14 03:59:44;;;;;;;7.13;3.00;;;20.90;99.90;;;;;;4982789;28;20404;-77
2023/08/14 04:02:12;;;;;;;14.75;3.45;;;20.90;99.90;;;;;;4984140;28;20412;-77
2023/08/14 04:04:40;;;;;;;7.72;3.10;;;20.80;99.90;;;;;;4982038;28;20430;-77
2023/08/14 04:07:07;;;;;;;6.90;2.83;;;20.80;99.90;;;;;;4981115;28;21249;-77
2023/08/14 04:09:34;;;;;;;7.60;3.13;;;20.70;99.90;;;;;;4981317;28;20471;-77
2023/08/14 04:12:01;;;;;;;6.60;2.60;;;20.60;99.90;;;;;;4981286;28;20404;-76
2023/08/14 04:14:30;;;;;;;7.60;2.70;;;20.70;99.90;;;;;;4979923;28;20408;-77
2023/08/14 04:16:57;;;;;;;8.32;2.60;;;20.80;99.90;;;;;;4980402;28;20392;-77
2023/08/14 04:19:22;;;;;;;6.90;3.00;;;20.70;99.90;;;;;;4995714;28;20459;-77
2023/08/14 04:21:50;;;;;;;6.50;3.10;;;20.70;99.90;;;;;;4962334;28;20436;-77
2023/08/14 04:24:16;;;;;;;8.88;3.00;;;20.80;99.90;;;;;;4982280;28;20392;-77
2023/08/14 04:26:43;;;;;;;8.00;3.50;;;20.70;99.90;;;;;;4981288;28;20406;-78
2023/08/14 04:29:09;;;;;;;7.72;2.38;;;20.80;99.90;;;;;;4977672;28;20404;-77
2023/08/14 04:31:39;;;;;;;6.83;3.00;;;20.70;99.90;;;;;;4974356;28;20393;-77
2023/08/14 04:34:06;;;;;;;8.70;3.20;;;20.80;99.90;;;;;;4979767;28;20404;-77
2023/08/14 04:36:33;;;;;;;7.68;2.75;;;20.80;99.90;;;;;;4980131;28;21769;-76
2023/08/14 04:39:00;;;;;;;6.78;2.90;;;20.80;99.90;;;;;;4976938;28;20520;-76
2023/08/14 04:41:26;;;;;;;7.72;2.78;;;20.80;99.90;;;;;;4977506;28;20439;-75
2023/08/14 04:43:52;;;;;;;6.15;2.72;;;20.90;99.90;;;;;;4980951;28;20416;-76
2023/08/14 04:46:34;;;;;;;6.70;3.20;;;20.90;99.90;;;;;;4982209;28;20483;-77
2023/08/14 04:49:01;;;;;;;9.18;2.55;;;20.90;99.90;;;;;;4980458;28;20575;-77
2023/08/14 04:51:27;;;;;;;7.15;2.88;;;21.10;99.90;;;;;;4979615;28;20410;-76
2023/08/14 04:53:56;;;;;;;9.15;2.70;;;21.20;99.90;;;;;;4979622;28;20540;-77
2023/08/14 04:56:22;;;;;;;6.90;2.90;;;21.30;99.90;;;;;;4981014;28;20412;-77
2023/08/14 04:58:48;;;;;;;6.43;2.80;;;21.30;99.90;;;;;;4971252;28;20419;-75
2023/08/14 05:01:13;;;;;;;8.10;2.85;;;21.30;99.90;;;;;;4983028;28;20462;-76
2023/08/14 05:03:41;;;;;;;9.00;3.40;;;21.30;99.90;;;;;;4976760;28;20416;-76
2023/08/14 05:06:06;;;;;;;6.57;2.90;;;21.20;99.90;;;;;;4971137;28;20417;-77
2023/08/14 05:08:35;;;;;;;7.00;2.72;;;21.20;99.90;;;;;;4968876;28;21012;-77
2023/08/14 05:11:00;;;;;;;7.85;3.30;;;21.30;99.90;;;;;;4944545;28;20405;-76
2023/08/14 05:13:28;;;;;;;8.50;3.33;;;21.50;99.90;;;;;;4975116;28;20479;-76
2023/08/14 05:15:56;;;;;;;6.32;3.03;;;21.80;99.90;;;;;;4977839;28;20428;-77
2023/08/14 05:18:22;;;;;;;7.80;2.50;;;21.90;99.90;;;;;;4979943;28;20412;-76
2023/08/14 05:20:49;;;;;;;7.57;3.10;;;21.90;99.90;;;;;;4973645;28;20567;-76
2023/08/14 05:23:15;;;;;;;5.97;2.35;;;21.90;99.90;;;;;;4971149;28;20446;-77
2023/08/14 05:25:44;;;;;;;6.55;2.70;;;22.00;99.90;;;;;;4977502;28;20739;-77
2023/08/14 05:28:12;;;;;;;6.75;2.63;;;22.10;99.90;;;;;;4980312;28;20474;-77
2023/08/14 05:30:45;;;;;;;7.90;3.80;;;22.70;99.90;;;;;;4979291;28;20867;-77
2023/08/14 05:33:11;;;;;;;7.40;3.20;;;23.90;44.40;;;;;;4975123;28;20408;-76
2023/08/14 05:35:37;;;;;;;6.65;2.28;;;25.20;99.90;;;;;;4978484;28;20400;-77
2023/08/14 05:38:24;;;;;;;6.38;2.40;;;25.60;1.00;;;;;;4978159;28;20503;-76
2023/08/14 05:40:50;;;;;;;7.30;2.53;;;25.00;99.90;;;;;;4972053;28;20468;-74
2023/08/14 05:43:16;;;;;;;7.60;2.90;;;24.40;99.90;;;;;;4983705;28;20511;-73
2023/08/14 05:45:43;;;;;;;7.20;2.60;;;23.90;1.00;;;;;;4965876;28;20433;-73
2023/08/14 05:48:09;;;;;;;7.00;2.70;;;23.80;1.00;;;;;;4977717;28;20408;-73
2023/08/14 05:50:35;;;;;;;7.78;2.60;;;23.70;1.00;;;;;;4974401;28;20448;-74
2023/08/14 05:53:03;;;;;;;9.25;2.88;;;23.60;1.00;;;;;;4973679;28;20428;-73
2023/08/14 05:55:30;;;;;;;6.40;2.37;;;23.60;1.00;;;;;;4975087;28;20420;-74
2023/08/14 05:57:56;;;;;;;9.05;2.85;;;23.40;1.00;;;;;;4973792;28;20404;-73
2023/08/14 06:00:24;;;;;;;8.20;3.10;;;23.40;1.00;;;;;;4977025;28;20416;-74
2023/08/14 06:02:53;;;;;;;6.95;2.80;;;23.50;1.00;;;;;;4982311;28;20459;-73
2023/08/14 06:05:19;;;;;;;8.48;2.50;;;23.50;1.00;;;;;;4978983;28;20497;-73
2023/08/14 06:07:48;;;;;;;7.63;2.47;;;23.50;1.00;;;;;;4983739;28;20388;-73
2023/08/14 06:10:13;;;;;;;6.50;2.45;;;23.40;1.00;;;;;;4964446;28;20493;-74
2023/08/14 06:12:39;;;;;;;6.93;2.53;;;23.20;1.00;;;;;;4958303;29;20429;-74
2023/08/14 06:15:05;;;;;;;6.60;2.20;;;23.20;1.00;;;;;;4971415;28;20435;-74
2023/08/14 06:17:32;;;;;;;6.63;2.60;;;23.30;1.00;;;;;;4978050;28;20400;-74
2023/08/14 06:19:58;;;;;;;7.20;2.63;;;23.40;1.00;;;;;;4978544;28;20411;-73
2023/08/14 06:22:24;;;;;;;7.20;2.30;;;23.50;1.00;;;;;;4978341;28;20410;-74
2023/08/14 06:24:53;;;;;;;6.50;2.80;;;23.40;1.00;;;;;;4963801;28;20421;-74
2023/08/14 06:27:22;;;;;;;8.80;2.10;;;23.30;1.00;;;;;;4969033;29;20421;-72
2023/08/14 06:29:47;;;;;;;6.30;2.58;;;23.40;1.00;;;;;;4970060;29;20418;-74
2023/08/14 06:32:13;;;;;;;7.22;2.35;;;23.60;1.00;;;;;;4967289;28;20521;-74
2023/08/14 06:34:40;;;;;;;12.03;3.30;;;23.50;1.00;;;;;;4977181;28;20420;-74
2023/08/14 06:37:07;;;;;;;7.20;2.40;;;23.40;1.00;;;;;;4982585;28;20426;-74
2023/08/14 06:39:33;;;;;;;8.63;2.60;;;23.30;1.00;;;;;;4971025;28;20422;-74
2023/08/14 06:41:58;;;;;;;6.30;2.50;;;23.40;1.00;;;;;;4974062;28;20428;-74
2023/08/14 06:44:24;;;;;;;8.17;2.90;;;23.30;1.00;;;;;;4975304;28;20761;-74
2023/08/14 06:46:53;;;;;;;8.10;3.10;;;23.30;1.00;;;;;;4980154;28;20412;-74
2023/08/14 06:49:18;;;;;;;8.52;3.13;;;23.50;1.00;;;;;;4978851;28;20463;-74
2023/08/14 06:51:44;;;;;;;7.20;3.33;;;23.70;1.00;;;;;;4971409;28;20450;-73
2023/08/14 06:54:09;;;;;;;10.47;3.30;;;24.00;1.00;;;;;;4972102;28;20474;-73
2023/08/14 06:56:36;;;;;;;9.80;3.30;;;24.40;1.00;;;;;;4983402;28;20408;-74
2023/08/14 06:59:03;;;;;;;8.70;3.45;;;26.90;1.00;;;;;;4988463;28;20450;-74
2023/08/14 07:01:28;;;;;;;7.85;3.53;;;27.60;1.00;;;;;;4980857;28;20494;-74
2023/08/14 07:03:54;;;;;;;8.67;3.00;;;29.20;99.90;;;;;;4974997;28;20392;-74
2023/08/14 07:06:19;;;;;;;7.73;2.87;;;30.20;1.00;;;;;;4972191;28;20396;-74
2023/08/14 07:08:45;;;;;;;6.90;2.90;;;30.90;1.00;;;;;;4971528;28;20400;-75
2023/08/14 07:11:10;;;;;;;8.00;2.80;;;31.90;1.00;;;;;;4974537;28;20400;-75
2023/08/14 07:13:36;;;;;;;7.37;2.80;;;32.40;1.00;;;;;;4972948;28;20424;-74
2023/08/14 07:16:01;;;;;;;8.07;2.90;;;32.60;1.00;;;;;;4970603;28;20833;-75
2023/08/14 07:18:27;;;;;;;7.27;2.80;;;32.70;1.00;;;;;;4970647;28;20462;-75
2023/08/14 07:20:52;;;;;;;8.10;2.70;;;32.50;1.00;;;;;;4970431;28;20432;-74
2023/08/14 07:23:19;;;;;;;7.40;2.90;;;32.50;1.00;;;;;;4972619;28;20392;-74
2023/08/14 07:25:46;;;;;;;8.00;2.90;;;32.70;1.00;;;;;;4971580;28;20432;-74
2023/08/14 07:28:12;;;;;;;7.00;2.50;;;32.90;1.00;;;;;;4977328;28;20395;-74
2023/08/14 07:30:38;;;;;;;7.38;2.38;;;33.30;1.00;;;;;;4974102;28;21090;-74
2023/08/14 07:33:05;;;;;;;6.80;2.70;;;33.90;1.00;;;;;;4972878;28;20419;-74
2023/08/14 07:35:31;;;;;;;6.88;2.40;;;34.30;1.00;;;;;;4972440;28;20432;-74
2023/08/14 07:37:58;;;;;;;7.43;2.40;;;34.60;1.00;;;;;;4972345;28;20784;-74
2023/08/14 07:40:23;;;;;;;7.47;2.83;;;34.90;1.00;;;;;;4972179;28;20793;-74
2023/08/14 07:42:49;;;;;;;6.28;2.45;;;35.00;1.00;;;;;;4972296;28;20400;-75
2023/08/14 07:45:15;;;;;;;6.70;2.40;;;35.20;1.00;;;;;;4971783;28;20404;-75
2023/08/14 07:47:41;;;;;;;6.40;2.30;;;35.40;1.00;;;;;;4972943;28;20451;-75
2023/08/14 07:50:07;;;;;;;7.18;2.60;;;36.10;1.00;;;;;;4971007;28;20881;-75
2023/08/14 07:52:34;;;;;;;6.18;2.25;;;36.20;1.00;;;;;;4972141;28;20415;-74
2023/08/14 07:55:00;;;;;;;7.07;2.17;;;35.40;1.00;;;;;;4971551;28;20447;-74
2023/08/14 07:57:27;;;;;;;6.27;2.20;;;;;;;;;;4972558;28;20400;-74
2023/08/14 07:59:53;;;;;;;7.00;2.58;;;35.90;99.90;;;;;;4971941;28;20392;-74
2023/08/14 08:02:19;;;;;;;7.10;2.40;;;35.40;99.90;;;;;;4972787;28;20856;-75
2023/08/14 08:04:44;;;;;;;7.70;2.70;;;35.30;99.90;;;;;;4971727;28;20495;-75
2023/08/14 08:07:13;;;;;;;7.50;2.60;;;35.00;99.90;;;;;;4979795;28;20424;-75
2023/08/14 08:09:39;;;;;;;7.63;2.22;;;35.70;99.90;;;;;;4969666;28;20425;-75
2023/08/14 08:12:06;;;;;;;8.68;2.60;;;36.40;99.90;;;;;;4986661;28;20396;-75
2023/08/14 08:14:33;;;;;;;7.18;2.50;;;36.90;99.90;;;;;;4984664;28;20404;-75
2023/08/14 08:17:00;;;;;;;6.95;2.50;;;37.30;99.90;;;;;;4979600;28;20396;-75
2023/08/14 08:19:27;;;;;;;6.97;2.15;;;37.40;99.90;;;;;;4971782;28;20404;-75
2023/08/14 08:21:53;;;;;;;6.90;2.57;;;37.30;99.90;;;;;;4971850;28;20424;-74
2023/08/14 08:24:19;;;;;;;7.53;2.77;;;37.30;99.90;;;;;;4971282;28;20486;-75
2023/08/14 08:26:44;;;;;;;6.20;2.28;;;36.50;99.90;;;;;;4986493;28;20435;-75
2023/08/14 08:29:10;;;;;;;7.13;2.03;;;35.70;99.90;;;;;;4972044;28;20396;-75
2023/08/14 08:31:36;;;;;;;6.60;2.70;;;35.70;99.90;;;;;;4970836;28;20434;-75
2023/08/14 08:34:01;;;;;;;9.30;2.20;;;36.30;99.90;;;;;;4968314;28;20420;-75
2023/08/14 08:36:27;;;;;;;6.90;2.40;;;36.50;99.90;;;;;;4971151;28;20403;-75
2023/08/14 08:38:52;;;;;;;7.23;1.93;;;37.30;99.90;;;;;;4971767;28;20397;-76
2023/08/14 08:41:25;;;;;;;6.28;1.90;;;37.90;99.90;;;;;;4970467;28;20851;-75
2023/08/14 08:44:00;;;;;;;6.20;2.10;;;38.10;99.90;;;;;;4971104;28;20420;-75
2023/08/14 08:46:27;;;;;;;7.63;2.10;;;38.80;99.90;;;;;;4970410;28;20507;-75
2023/08/14 08:48:53;;;;;;;6.80;1.80;;;38.80;99.90;;;;;;4970448;28;20395;-76
2023/08/14 08:51:19;;;;;;;6.50;2.23;;;39.20;99.90;;;;;;4968133;28;20420;-75
2023/08/14 08:53:45;;;;;;;6.50;2.40;;;39.40;99.90;;;;;;4971027;28;20455;-75
2023/08/14 08:56:12;;;;;;;6.17;2.37;;;39.60;99.90;;;;;;4970572;28;20479;-75
2023/08/14 08:58:37;;;;;;;8.97;2.33;;;39.20;99.90;;;;;;4970056;28;20470;-76
2023/08/14 09:01:04;;;;;;;6.20;2.23;;;38.50;99.90;;;;;;4967842;28;20956;-75
2023/08/14 09:03:30;;;;;;;6.32;2.20;;;39.00;99.90;;;;;;4971004;28;20396;-76
2023/08/14 09:05:55;;;;;;;7.37;2.30;;;39.80;99.90;;;;;;4970272;28;20419;-74
2023/08/14 09:08:21;;;;;;;6.60;2.60;;;40.30;99.90;;;;;;4970219;28;20396;-74
2023/08/14 09:10:47;;;;;;;6.73;2.57;;;40.60;99.90;;;;;;4970648;28;20396;-74
2023/08/14 09:13:14;;;;;;;7.70;2.20;;;40.90;99.90;;;;;;4971588;28;20724;-74
2023/08/14 09:15:43;;;;;;;6.00;2.40;;;40.10;99.90;;;;;;4973058;28;20424;-74
2023/08/14 09:18:12;;;;;;;8.52;2.00;;;39.90;99.90;;;;;;4976088;28;20503;-75
2023/08/14 09:20:39;;;;;;;6.60;2.38;;;40.20;99.90;;;;;;4973774;28;20427;-75
2023/08/14 09:23:09;;;;;;;7.93;2.60;;;41.10;99.90;;;;;;4971278;28;20381;-75
2023/08/14 09:25:35;;;;;;;6.90;2.70;;;41.40;29.40;;;;;;4970891;28;20870;-75
2023/08/14 09:28:00;;;;;;;7.10;2.70;;;41.70;1.00;;;;;;4966042;28;20451;-74
2023/08/14 09:30:28;;;;;;;6.70;2.60;;;42.20;99.90;;;;;;4961188;28;20400;-74
2023/08/14 09:32:55;;;;;;;7.68;2.38;;;41.40;99.90;;;;;;4969521;28;21023;-74
2023/08/14 09:35:20;;;;;;;7.80;3.15;;;40.40;99.90;;;;;;4968387;28;20396;-75
2023/08/14 09:37:49;;;;;;;6.90;2.30;;;39.60;99.90;;;;;;4968295;28;20423;-75
2023/08/14 09:40:16;;;;;;;8.13;3.17;;;39.70;99.90;;;;;;4970827;28;20519;-76
2023/08/14 09:42:46;;;;;;;7.30;2.45;;;;;;;;;;4971209;28;20830;-75
2023/08/14 09:45:13;;;;;;;6.60;2.30;;;39.00;99.90;;;;;;4970350;28;20400;-75
2023/08/14 09:47:42;;;;;;;7.13;3.10;;;39.40;99.90;;;;;;4972987;28;20392;-75
2023/08/14 09:50:07;;;;;;;7.40;2.85;;;38.90;99.90;;;;;;4969884;28;20491;-76
2023/08/14 09:52:33;;;;;;;7.15;2.70;;;38.40;99.90;;;;;;4970354;28;20445;-74
2023/08/14 09:55:01;;;;;;;8.77;3.00;;;37.90;99.90;;;;;;4958187;28;20909;-75
2023/08/14 09:57:26;;;;;;;7.10;2.80;;;37.60;99.90;;;;;;4969368;28;20873;-75
2023/08/14 09:59:52;;;;;;;6.68;2.35;;;38.20;99.90;;;;;;4958758;28;20401;-75
2023/08/14 10:02:22;;;;;;;7.60;2.60;;;38.90;99.90;;;;;;4967134;28;20424;-75
2023/08/14 10:04:48;;;;;;;7.47;3.00;;;39.80;99.90;;;;;;4970776;28;20417;-76
2023/08/14 10:07:15;;;;;;;7.50;2.95;;;40.00;99.90;;;;;;4972185;28;20408;-76
2023/08/14 10:09:45;;;;;;;7.50;2.37;;;39.20;99.90;;;;;;4971083;28;20430;-76
2023/08/14 10:12:16;;;;;;;8.63;2.70;;;38.80;99.90;;;;;;4974734;28;20400;-75
2023/08/14 10:14:47;;;;;;;8.80;3.10;;;39.10;99.90;;;;;;4974078;28;20454;-77
2023/08/14 10:17:20;;;;;;;7.53;3.00;;;39.00;99.90;;;;;;4969510;28;20427;-75
2023/08/14 10:19:50;;;;;;;7.10;2.92;;;38.50;99.90;;;;;;4972606;28;20423;-75
2023/08/14 10:22:16;;;;;;;10.27;2.83;;;38.40;99.90;;;;;;4970039;28;20489;-75
2023/08/14 10:24:42;;;;;;;7.77;2.60;;;38.30;99.90;;;;;;4974097;28;20392;-75
2023/08/14 10:27:08;;;;;;;7.95;2.72;;;38.40;99.90;;;;;;4971915;28;20493;-75
2023/08/14 10:29:35;;;;;;;7.22;2.80;;;38.70;99.90;;;;;;4971021;28;20428;-76
2023/08/14 10:32:01;;;;;;;7.00;2.80;;;39.00;99.90;;;;;;4973307;28;20414;-76
2023/08/14 10:34:30;;;;;;;7.83;2.90;;;39.50;99.90;;;;;;4969674;28;20502;-74
2023/08/14 10:36:55;;;;;;;6.65;2.80;;;39.50;99.90;;;;;;4966919;28;20490;-74
2023/08/14 10:39:33;;;;;;;6.30;2.70;;;39.10;99.90;;;;;;4969041;28;20508;-74
2023/08/14 10:42:00;;;;;;;8.32;3.08;;;38.70;99.90;;;;;;4986146;28;20730;-74
2023/08/14 10:44:33;;;;;;;7.20;3.20;;;38.30;99.90;;;;;;4968956;28;20431;-74
2023/08/14 10:47:06;;;;;;;9.33;3.10;;;37.70;99.90;;;;;;4971590;28;20410;-74
2023/08/14 10:49:44;;;;;;;6.60;2.50;;;37.40;99.90;;;;;;4968037;28;20507;-74
2023/08/14 10:52:16;;;;;;;7.78;3.40;;;37.40;99.90;;;;;;4958641;28;20899;-74
2023/08/14 10:54:53;;;;;;;7.18;2.90;;;37.10;99.90;;;;;;4972046;28;20412;-74
2023/08/14 10:57:27;;;;;;;7.50;3.08;;;36.70;99.90;;;;;;4970635;28;20412;-73
2023/08/14 10:59:57;;;;;;;8.70;3.33;;;36.40;99.90;;;;;;4972572;28;20464;-74
2023/08/14 11:02:25;;;;;;;8.15;3.00;;;35.80;99.90;;;;;;4959154;28;20424;-74
2023/08/14 11:05:00;;;;;;;6.88;2.70;;;35.30;99.90;;;;;;4972774;28;20507;-74
2023/08/14 11:07:32;;;;;;;7.20;2.90;;;34.90;99.90;;;;;;4972675;28;20396;-74
2023/08/14 11:09:57;;;;;;;6.55;2.75;;;34.80;99.90;;;;;;4973250;28;20380;-74
2023/08/14 11:12:23;;;;;;;8.13;3.30;;;34.90;99.90;;;;;;4972665;28;20810;-75
2023/08/14 11:14:49;;;;;;;8.55;2.88;;;35.30;99.90;;;;;;4965550;28;20426;-74
2023/08/14 11:17:15;;;;;;;7.63;3.30;;;35.80;99.90;;;;;;4967076;28;20841;-74
2023/08/14 11:19:40;;;;;;;7.30;3.00;;;36.00;99.90;;;;;;4961877;28;20408;-75
2023/08/14 11:22:06;;;;;;;7.23;2.90;;;36.20;99.90;;;;;;4972240;28;20423;-74
2023/08/14 11:24:32;;;;;;;8.55;3.47;;;36.50;99.90;;;;;;4973357;28;20822;-74
2023/08/14 11:26:59;;;;;;;7.82;3.25;;;36.70;99.90;;;;;;4972578;28;20456;-74
2023/08/14 11:29:24;;;;;;;8.55;3.13;;;36.60;99.90;;;;;;4970207;28;20412;-75
2023/08/14 11:31:51;;;;;;;9.20;2.90;;;36.70;99.90;;;;;;4971155;28;20412;-74
2023/08/14 11:34:18;;;;;;;7.60;2.90;;;36.50;99.90;;;;;;4972212;28;20479;-74
2023/08/14 11:37:01;;;;;;;7.97;2.88;;;36.40;99.90;;;;;;4971770;28;20878;-75
2023/08/14 11:39:27;;;;;;;9.30;3.70;;;36.20;99.90;;;;;;4971394;28;20470;-75
2023/08/14 11:41:53;;;;;;;8.15;3.20;;;35.90;99.90;;;;;;4972002;28;20424;-74
2023/08/14 11:44:19;;;;;;;8.20;3.50;;;35.60;99.90;;;;;;4970123;28;20494;-74
2023/08/14 11:46:47;;;;;;;8.93;3.05;;;35.10;99.90;;;;;;4962638;28;20984;-75
2023/08/14 11:49:12;;;;;;;7.33;3.20;;;35.00;99.90;;;;;;4972459;28;20912;-74
2023/08/14 11:51:40;;;;;;;8.67;3.40;;;35.10;99.90;;;;;;4971134;28;20431;-75
2023/08/14 11:54:06;;;;;;;8.05;3.28;;;35.10;99.90;;;;;;4970159;28;20392;-75
2023/08/14 11:56:33;;;;;;;8.00;3.40;;;35.00;99.90;;;;;;4969956;28;20428;-74
2023/08/14 11:58:59;;;;;;;8.73;3.45;;;34.70;99.90;;;;;;4965219;28;20412;-75
2023/08/14 12:01:25;;;;;;;7.97;3.22;;;34.60;99.90;;;;;;4970965;28;20451;-75
2023/08/14 12:03:51;;;;;;;9.27;3.65;;;34.20;99.90;;;;;;4968384;28;20412;-74
2023/08/14 12:06:17;;;;;;;8.80;3.30;;;34.20;99.90;;;;;;4959754;28;20422;-75
2023/08/14 12:08:42;;;;;;;7.28;3.20;;;34.00;99.90;;;;;;4971372;28;20384;-75
2023/08/14 12:11:16;;;;;;;8.52;3.40;;;33.90;99.90;;;;;;4971632;28;20770;-75
2023/08/14 12:13:52;;;;;;;9.02;2.90;;;33.60;99.90;;;;;;4968597;28;20415;-75
2023/08/14 12:16:21;;;;;;;7.70;3.47;;;33.30;99.90;;;;;;4955317;28;20438;-74
2023/08/14 12:18:48;;;;;;;7.82;3.00;;;33.20;99.90;;;;;;4966907;28;20412;-73
2023/08/14 12:21:14;;;;;;;11.23;3.33;;;33.00;99.90;;;;;;4967693;28;20432;-74
2023/08/14 12:23:47;;;;;;;8.95;3.70;;;32.60;99.90;;;;;;4969660;28;20884;-74
2023/08/14 12:26:15;;;;;;;9.10;3.30;;;32.50;99.90;;;;;;4967810;28;20412;-75
2023/08/14 12:28:42;;;;;;;8.13;2.80;;;32.30;99.90;;;;;;4971948;28;20400;-73
2023/08/14 12:31:08;;;;;;;7.60;3.30;;;30.60;99.90;;;;;;4969629;28;20415;-74
2023/08/14 12:33:34;;;;;;;11.17;3.70;;;28.60;1.00;;;;;;4968421;28;20415;-72
2023/08/14 12:35:59;;;;;;;8.37;2.60;;;26.80;1.00;;;;;;4970339;28;20428;-70
2023/08/14 12:38:25;;;;;;;4.50;0.93;;;23.70;1.00;;;;;;4970808;28;20500;-71
2023/08/14 12:40:51;;;;;;;4.72;0.98;;;22.20;42.90;;;;;;4968676;28;20427;-71
2023/08/14 12:43:17;;;;;;;3.90;0.40;;;21.70;86.50;;;;;;4969897;28;20427;-70
2023/08/14 12:45:43;;;;;;;4.10;0.90;;;21.70;99.90;;;;;;4969865;28;20380;-68
2023/08/14 12:48:09;;;;;;;4.30;0.70;;;22.10;99.90;;;;;;4970295;28;20916;-71
2023/08/14 12:50:35;;;;;;;3.70;0.40;;;22.40;99.90;;;;;;4970699;28;20456;-72
2023/08/14 12:53:02;;;;;;;4.00;0.60;;;23.40;99.90;;;;;;4970306;28;20400;-72
2023/08/14 12:55:28;;;;;;;5.05;1.70;;;23.70;99.90;;;;;;4969513;28;20407;-72